Time;durP1;ratioP1;P1;durP2;ratioP2;P2;SDS_P1;SDS_P2;PMS_P1;PMS_P2;Temp;Humidity;BMP_temperature;BMP_pressure;BME280_temperature;BME280_humidity;BME280_pressure;Samples;Min_cycle;Max_cycle;Signal;HPM_P1;HPM_P2
2023/09/30 00:00:58;;;;;;;26.30;8.77;;;;;;;18.79;51.48;95681.97;4997378;28;20492;-87
2023/09/30 00:03:23;;;;;;;36.63;9.60;;;;;;;17.88;51.47;95539.53;4996549;28;20110;-88
2023/09/30 00:05:49;;;;;;;25.40;8.13;;;;;;;18.83;51.62;95676.78;5015632;28;20030;-88
2023/09/30 00:08:15;;;;;;;24.02;8.50;;;;;;;18.73;51.32;95661.75;4999834;28;20037;-87
2023/09/30 00:10:40;;;;;;;24.33;8.10;;;;;;;18.41;51.53;95617.22;4999806;28;20045;-88
2023/09/30 00:13:06;;;;;;;25.27;9.25;;;;;;;18.41;51.38;95609.19;4999073;28;20044;-88
2023/09/30 00:15:33;;;;;;;30.67;9.05;;;;;;;18.45;51.51;95617.41;5002632;28;20042;-87
2023/09/30 00:17:58;;;;;;;22.05;8.07;;;;;;;18.27;51.59;95597.78;4994643;28;20440;-87
2023/09/30 00:20:24;;;;;;;21.15;9.25;;;;;;;18.92;51.27;95676.81;4999099;28;20038;-88
2023/09/30 00:22:49;;;;;;;24.90;9.07;;;;;;;18.92;51.28;95688.31;4999098;28;20033;-87
2023/09/30 00:25:15;;;;;;;32.83;9.13;;;;;;;18.95;51.12;95676.97;4983764;28;20050;-87
2023/09/30 00:27:40;;;;;;;21.30;8.07;;;;;;;18.82;50.98;95661.78;4993504;28;20037;-87
2023/09/30 00:30:07;;;;;;;20.98;8.02;;;;;;;18.97;51.22;95684.72;4998501;28;20099;-87
2023/09/30 00:32:33;;;;;;;23.77;9.18;;;;;;;18.59;51.05;95620.78;4998700;28;20468;-87
2023/09/30 00:35:00;;;;;;;17.75;8.35;;;;;;;18.38;51.73;95587.53;4998541;28;20061;-87
2023/09/30 00:37:27;;;;;;;17.65;8.70;;;;;;;18.74;51.90;95651.78;4998625;28;20030;-87
2023/09/30 00:39:52;;;;;;;19.25;8.23;;;;;;;18.40;51.63;95591.47;5014694;28;20038;-87
2023/09/30 00:42:20;;;;;;;26.52;9.02;;;;;;;18.63;51.70;95624.41;5001441;28;20093;-88
2023/09/30 00:44:46;;;;;;;25.75;8.27;;;;;;;18.07;52.09;95550.84;4979256;28;20039;-87
2023/09/30 00:47:11;;;;;;;21.05;8.35;;;;;;;18.82;52.33;95657.19;4992615;28;20109;-87
2023/09/30 00:49:38;;;;;;;16.52;8.43;;;;;;;18.71;52.20;95625.53;4998091;28;20064;-87
2023/09/30 00:52:04;;;;;;;21.60;8.63;;;;;;;18.56;52.08;95604.47;4998012;28;20530;-87
2023/09/30 00:54:31;;;;;;;24.98;9.38;;;;;;;18.33;51.86;95566.97;4984552;28;20031;-87
2023/09/30 00:56:57;;;;;;;21.02;8.90;;;;;;;18.12;51.58;95534.56;4994203;28;20052;-87
2023/09/30 00:59:26;;;;;;;32.25;8.75;;;;;;;18.82;51.48;95645.66;4990705;28;20050;-87
2023/09/30 01:01:54;;;;;;;26.75;9.50;;;;;;;18.22;51.57;95538.88;4979686;28;20080;-86
2023/09/30 01:04:20;;;;;;;24.27;8.65;;;;;;;19.04;51.61;95661.63;4999961;28;20042;-87
2023/09/30 01:06:47;;;;;;;27.33;9.63;;;;;;;18.84;52.53;95646.13;4994980;28;20088;-88
2023/09/30 01:09:13;;;;;;;21.17;9.23;;;;;;;18.57;52.22;95604.19;4977709;28;20039;-88
2023/09/30 01:11:40;;;;;;;29.85;9.25;;;;;;;19.03;52.03;95665.44;4978103;28;20030;-88
2023/09/30 01:14:26;;;;;;;24.88;8.90;;;;;;;18.72;53.03;95648.63;5006703;28;20034;-88
2023/09/30 01:16:52;;;;;;;21.73;8.93;;;;;;;18.46;53.48;95635.13;4995160;28;20029;-88
2023/09/30 01:19:18;;;;;;;21.20;8.60;;;;;;;18.12;53.48;95574.84;5014881;28;20092;-88
2023/09/30 01:21:48;;;;;;;23.05;9.32;;;;;;;18.06;53.83;95576.09;5016049;28;20050;-87
2023/09/30 01:24:16;;;;;;;18.85;8.48;;;;;;;18.55;53.96;95641.28;4997937;28;20029;-88
2023/09/30 01:26:44;;;;;;;18.02;8.48;;;;;;;18.48;54.07;95632.88;5009263;28;20604;-88
2023/09/30 01:29:13;;;;;;;24.52;8.80;;;;;;;18.61;54.05;95645.47;4989095;28;20084;-88
2023/09/30 01:31:39;;;;;;;26.58;8.48;;;;;;;18.37;54.24;95613.59;5004313;28;20511;-88
2023/09/30 01:34:04;;;;;;;25.92;7.50;;;;;;;18.06;54.53;95576.09;4995703;28;20034;-88
2023/09/30 01:36:30;;;;;;;22.98;8.73;;;;;;;18.59;54.91;95654.91;4987224;28;20030;-87
2023/09/30 01:38:56;;;;;;;22.63;8.63;;;;;;;18.09;54.67;95569.28;5004747;28;20395;-88
2023/09/30 01:41:23;;;;;;;22.13;9.98;;;;;;;18.54;54.32;95628.94;4987726;28;20037;-88
2023/09/30 01:43:48;;;;;;;26.65;9.13;;;;;;;18.47;53.98;95634.78;5002275;28;20129;-88
2023/09/30 01:46:14;;;;;;;21.52;8.30;;;;;;;18.15;54.06;95578.81;5006734;28;20080;-88
2023/09/30 01:48:39;;;;;;;23.85;8.77;;;;;;;18.71;53.81;95657.78;5013918;28;20097;-88
2023/09/30 01:51:06;;;;;;;24.98;8.45;;;;;;;18.65;53.78;95645.59;5005764;28;20044;-88
2023/09/30 01:53:32;;;;;;;22.98;8.15;;;;;;;18.68;53.46;95651.16;4986383;28;20034;-87
2023/09/30 01:55:57;;;;;;;19.00;8.90;;;;;;;18.54;53.39;95620.88;5010215;28;20041;-88
2023/09/30 01:58:23;;;;;;;17.17;7.82;;;;;;;18.30;53.05;95582.94;4982831;28;20511;-88
2023/09/30 02:00:48;;;;;;;25.30;8.38;;;;;;;18.73;52.84;95637.56;4980074;28;20041;-88
2023/09/30 02:03:14;;;;;;;20.08;7.82;;;;;;;18.41;52.79;95601.13;4988098;28;20038;-88
2023/09/30 02:05:39;;;;;;;21.02;7.65;;;;;;;18.68;52.65;95640.41;4999230;28;20044;-85
2023/09/30 02:08:05;;;;;;;22.20;8.13;;;;;;;18.65;52.72;95641.03;4989471;28;20038;-85
2023/09/30 02:10:35;;;;;;;21.20;7.78;;;;;;;18.74;52.67;95659.84;4997718;28;20026;-85
2023/09/30 02:13:01;;;;;;;32.47;9.52;;;;;;;18.18;52.62;95555.88;4999625;28;20034;-85
2023/09/30 02:15:27;;;;;;;26.60;8.05;;;;;;;18.20;52.22;95570.59;4989573;28;20068;-86
2023/09/30 02:17:52;;;;;;;17.98;7.25;;;;;;;18.76;51.96;95654.97;4998184;28;20030;-85
2023/09/30 02:20:25;;;;;;;15.60;7.18;;;;;;;18.76;51.82;95654.97;5026789;28;20048;-85
2023/09/30 02:22:52;;;;;;;23.05;8.35;;;;;;;18.39;51.71;95630.16;4998475;28;20034;-85
2023/09/30 02:25:18;;;;;;;13.98;7.57;;;;;;;17.64;51.40;95512.31;4988644;28;20112;-85
2023/09/30 02:27:44;;;;;;;16.10;7.38;;;;;;;18.58;51.60;95654.13;4997250;28;20033;-85
2023/09/30 02:30:11;;;;;;;22.55;7.38;;;;;;;18.57;51.62;95659.81;5018656;28;20093;-85
2023/09/30 02:32:39;;;;;;;20.48;7.53;;;;;;;18.30;51.32;95615.16;4989669;28;20038;-85
2023/09/30 02:35:05;;;;;;;17.88;7.75;;;;;;;18.54;51.58;95663.09;5006870;28;20110;-85
2023/09/30 02:37:35;;;;;;;18.13;8.25;;;;;;;18.49;51.45;95656.75;4999031;28;20033;-85
2023/09/30 02:40:05;;;;;;;15.40;7.10;;;;;;;18.20;51.59;95635.03;5030582;28;20037;-85
2023/09/30 02:42:31;;;;;;;25.23;6.95;;;;;;;17.85;51.90;95582.31;5031099;28;20490;-85
2023/09/30 02:44:59;;;;;;;21.90;7.03;;;;;;;17.95;51.04;95611.53;5021482;28;20046;-85
2023/09/30 02:47:24;;;;;;;22.27;7.07;;;;;;;17.80;50.53;95601.22;4992952;28;20074;-85
2023/09/30 02:49:50;;;;;;;18.15;7.60;;;;;;;17.33;50.70;95536.41;5019150;28;20037;-85
2023/09/30 02:52:15;;;;;;;22.42;6.90;;;;;;;17.81;50.68;95600.91;5012874;28;20486;-85
2023/09/30 02:54:41;;;;;;;14.70;6.93;;;;;;;17.88;50.54;95612.00;5016910;28;20049;-85
2023/09/30 02:57:09;;;;;;;20.17;7.03;;;;;;;17.03;50.61;95539.84;5030745;28;20562;-84
2023/09/30 02:59:36;;;;;;;16.65;6.40;;;;;;;17.85;49.83;95654.75;5014722;28;20097;-84
2023/09/30 03:02:02;;;;;;;19.60;6.65;;;;;;;17.39;50.30;95612.16;5004348;28;20042;-85
2023/09/30 03:04:28;;;;;;;19.85;6.53;;;;;;;17.43;50.08;95584.44;5002412;28;20109;-84
2023/09/30 03:06:56;;;;;;;29.27;7.75;;;;;;;17.83;50.22;95659.63;5012577;28;20038;-84
2023/09/30 03:09:22;;;;;;;17.38;6.55;;;;;;;17.41;50.15;95580.47;5010101;28;20064;-84
2023/09/30 03:11:48;;;;;;;23.13;7.47;;;;;;;17.66;51.03;95645.00;5030048;28;20060;-84
2023/09/30 03:14:13;;;;;;;18.58;6.78;;;;;;;16.98;51.44;95527.38;5011997;28;20125;-84
2023/09/30 03:16:41;;;;;;;20.60;7.43;;;;;;;17.39;52.12;95606.81;5020897;28;20056;-84
2023/09/30 03:19:07;;;;;;;21.60;8.30;;;;;;;17.70;52.08;95658.59;4993169;28;20438;-84
2023/09/30 03:21:34;;;;;;;15.43;7.63;;;;;;;17.38;53.10;95645.44;5001918;28;20040;-85
2023/09/30 03:24:04;;;;;;;18.05;7.28;;;;;;;17.31;53.54;95641.28;5013194;28;20033;-84
2023/09/30 03:26:30;;;;;;;18.60;6.88;;;;;;;17.44;53.61;95666.44;5004494;28;20034;-84
2023/09/30 03:28:56;;;;;;;19.10;7.15;;;;;;;16.51;53.67;95512.66;5020549;28;20052;-85
2023/09/30 03:31:22;;;;;;;23.67;8.50;;;;;;;17.43;53.96;95656.03;5031249;28;20093;-84
2023/09/30 03:33:51;;;;;;;20.35;7.60;;;;;;;17.34;53.95;95648.72;5014630;28;20037;-84
2023/09/30 03:36:18;;;;;;;33.30;8.23;;;;;;;17.18;54.54;95630.59;5031562;28;20056;-85
2023/09/30 03:38:44;;;;;;;15.27;7.20;;;;;;;16.95;55.20;95619.06;5032564;28;20044;-85
2023/09/30 03:41:10;;;;;;;16.10;7.65;;;;;;;17.13;55.14;95634.19;5016344;28;20034;-85
2023/09/30 03:43:40;;;;;;;22.20;7.97;;;;;;;16.89;55.38;95601.53;5011465;28;20130;-85
2023/09/30 03:46:06;;;;;;;25.67;7.88;;;;;;;16.88;55.57;95626.72;5007785;28;20029;-85
2023/09/30 03:48:32;;;;;;;16.33;7.07;;;;;;;16.94;55.50;95620.16;5026606;28;20022;-84
2023/09/30 03:50:57;;;;;;;26.45;7.55;;;;;;;15.41;55.88;95388.97;5024991;28;20045;-84
2023/09/30 03:53:26;;;;;;;15.82;7.78;;;;;;;16.99;56.19;95649.53;5035239;28;20038;-85
2023/09/30 03:55:51;;;;;;;19.95;8.07;;;;;;;16.57;56.20;95567.66;5007931;28;20026;-84
2023/09/30 03:58:18;;;;;;;27.52;8.05;;;;;;;16.92;56.30;95638.44;5019950;28;20033;-84
2023/09/30 04:00:44;;;;;;;20.63;8.38;;;;;;;16.87;56.20;95633.97;5007079;28;20022;-84
2023/09/30 04:03:10;;;;;;;21.40;7.97;;;;;;;16.92;56.65;95662.56;5017395;28;20018;-84
2023/09/30 04:05:36;;;;;;;21.08;8.23;;;;;;;15.52;56.47;95443.03;5002223;28;20049;-88
2023/09/30 04:08:03;;;;;;;20.02;8.68;;;;;;;16.60;56.28;95609.91;5003267;28;20072;-87
2023/09/30 04:10:30;;;;;;;26.30;8.65;;;;;;;15.81;56.06;95494.34;5002700;28;20496;-88
2023/09/30 04:12:56;;;;;;;18.10;7.38;;;;;;;16.91;56.13;95664.44;5019715;28;20041;-88
2023/09/30 04:15:21;;;;;;;28.55;8.23;;;;;;;15.85;56.25;95538.13;5001574;28;20038;-88
2023/09/30 04:17:48;;;;;;;19.23;8.07;;;;;;;15.82;55.53;95512.78;5008533;28;20034;-88
2023/09/30 04:20:22;;;;;;;20.38;6.72;;;;;;;16.38;54.65;95609.84;4990968;28;20120;-88
2023/09/30 04:22:50;;;;;;;17.48;6.55;;;;;;;16.70;54.42;95670.53;5000654;28;20073;-88
2023/09/30 04:25:16;;;;;;;17.33;6.95;;;;;;;16.57;53.91;95645.31;5003104;28;20057;-84
2023/09/30 04:27:47;;;;;;;19.55;7.03;;;;;;;16.53;54.02;95637.09;5011177;28;20034;-84
2023/09/30 04:30:15;;;;;;;16.33;7.15;;;;;;;16.81;53.79;95680.72;5011411;28;20033;-84
2023/09/30 04:32:40;;;;;;;16.00;7.10;;;;;;;16.68;53.75;95664.69;4999109;28;20034;-84
2023/09/30 04:35:10;;;;;;;19.75;7.05;;;;;;;16.25;53.48;95591.94;4994856;28;20134;-85
2023/09/30 04:37:38;;;;;;;21.33;7.55;;;;;;;16.31;53.77;95594.19;4980916;28;20031;-84
2023/09/30 04:40:15;;;;;;;17.30;7.30;;;;;;;15.83;54.00;95554.47;4979272;28;20098;-84
2023/09/30 04:42:43;;;;;;;15.27;6.68;;;;;;;16.43;53.61;95625.78;4982391;28;20121;-84
2023/09/30 04:45:10;;;;;;;20.73;7.35;;;;;;;16.28;53.30;95618.88;4991073;28;20046;-84
2023/09/30 04:47:35;;;;;;;18.20;6.60;;;;;;;15.94;53.28;95600.56;4990535;28;20054;-85
2023/09/30 04:50:07;;;;;;;17.60;6.63;;;;;;;16.34;53.03;95659.69;4990341;28;20102;-84
2023/09/30 04:52:33;;;;;;;13.32;6.95;;;;;;;16.04;53.67;95637.78;4977638;28;20035;-84
2023/09/30 04:54:59;;;;;;;25.30;7.25;;;;;;;16.05;53.51;95646.63;4985551;28;20063;-84
2023/09/30 04:57:26;;;;;;;15.45;7.43;;;;;;;16.02;53.80;95660.59;4970231;28;20058;-85
2023/09/30 04:59:51;;;;;;;14.55;6.72;;;;;;;16.19;53.58;95698.25;4970583;28;20035;-85
2023/09/30 05:02:16;;;;;;;16.80;6.95;;;;;;;15.82;53.68;95611.72;4981547;28;20434;-84
2023/09/30 05:04:45;;;;;;;17.40;6.60;;;;;;;15.30;53.96;95553.28;4977841;28;20038;-85
2023/09/30 05:07:13;;;;;;;14.10;7.53;;;;;;;15.32;54.31;95567.16;4980594;28;20054;-84
2023/09/30 05:09:38;;;;;;;16.92;6.88;;;;;;;15.47;53.63;95568.78;5003238;28;20049;-86
2023/09/30 05:12:04;;;;;;;19.98;7.50;;;;;;;16.41;53.43;95701.03;4978440;28;20031;-85
2023/09/30 05:14:31;;;;;;;14.65;6.28;;;;;;;16.26;53.39;95689.81;4986408;28;20058;-85
2023/09/30 05:16:57;;;;;;;20.52;6.95;;;;;;;16.47;53.15;95707.13;4981184;28;20486;-88
2023/09/30 05:19:22;;;;;;;24.48;6.30;;;;;;;16.41;52.75;95700.25;4973862;28;20113;-88
2023/09/30 05:21:48;;;;;;;20.27;6.85;;;;;;;16.50;52.50;95717.22;4966153;28;20039;-88
2023/09/30 05:24:15;;;;;;;14.15;6.50;;;;;;;15.85;53.11;95637.09;4974566;28;20102;-88
2023/09/30 05:26:40;;;;;;;14.02;5.95;;;;;;;14.68;52.75;95430.69;4965799;28;20118;-88
2023/09/30 05:29:07;;;;;;;16.58;7.97;;;;;;;16.16;52.64;95630.09;4964896;28;20074;-88
2023/09/30 05:31:32;;;;;;;21.08;7.13;;;;;;;15.79;52.64;95571.41;4966410;28;20039;-88
2023/09/30 05:33:58;;;;;;;19.38;6.72;;;;;;;16.34;52.75;95657.03;4957406;28;20042;-88
2023/09/30 05:36:24;;;;;;;15.70;7.07;;;;;;;16.29;52.81;95655.25;4977955;28;20027;-88
2023/09/30 05:38:49;;;;;;;29.55;8.02;;;;;;;16.39;52.74;95649.72;4986969;28;20100;-88
2023/09/30 05:41:15;;;;;;;26.63;7.35;;;;;;;16.66;52.65;95713.16;4998472;28;20040;-88
2023/09/30 05:43:43;;;;;;;14.52;7.97;;;;;;;15.48;53.12;95546.31;5016130;28;20417;-87
2023/09/30 05:46:08;;;;;;;27.88;7.65;;;;;;;16.50;53.21;95688.56;4997645;28;20089;-87
2023/09/30 05:48:34;;;;;;;14.40;7.95;;;;;;;16.36;53.01;95674.38;4998163;28;20034;-88
2023/09/30 05:50:59;;;;;;;15.88;7.00;;;;;;;16.82;52.82;95724.38;4997239;28;20553;-88
2023/09/30 05:53:25;;;;;;;16.00;8.07;;;;;;;16.74;52.82;95720.50;5014904;28;20030;-87
2023/09/30 05:55:50;;;;;;;19.50;8.50;;;;;;;16.27;52.95;95637.91;4998126;28;20038;-87
2023/09/30 05:58:16;;;;;;;22.85;7.93;;;;;;;16.45;52.55;95661.09;5015369;28;20062;-87
2023/09/30 06:00:42;;;;;;;21.67;7.95;;;;;;;16.88;52.63;95709.78;4997814;28;20086;-88
2023/09/30 06:03:10;;;;;;;23.27;7.85;;;;;;;16.30;52.82;95637.31;4990507;28;20034;-88
2023/09/30 06:05:42;;;;;;;31.63;8.95;;;;;;;16.95;52.55;95726.22;5002921;28;20470;-88
2023/09/30 06:08:13;;;;;;;31.58;8.18;;;;;;;16.41;52.50;95641.34;4995209;28;20149;-87
2023/09/30 06:10:43;;;;;;;20.83;8.43;;;;;;;17.02;52.24;95717.78;4978805;28;20493;-87
2023/09/30 06:13:09;;;;;;;22.38;8.18;;;;;;;16.94;52.20;95714.72;4978214;28;20104;-88
2023/09/30 06:15:39;;;;;;;22.15;8.23;;;;;;;16.64;52.11;95644.94;5004734;28;20026;-87
2023/09/30 06:18:06;;;;;;;16.52;7.53;;;;;;;17.21;52.11;95731.84;4997862;28;20053;-88
2023/09/30 06:20:31;;;;;;;21.63;8.18;;;;;;;16.59;51.75;95646.59;5007141;28;20058;-88
2023/09/30 06:22:57;;;;;;;22.30;8.68;;;;;;;16.38;51.98;95607.16;4978080;28;20065;-87
2023/09/30 06:25:25;;;;;;;25.05;7.55;;;;;;;17.04;51.54;95699.53;4989505;28;20112;-86
2023/09/30 06:27:51;;;;;;;20.05;8.55;;;;;;;17.31;51.54;95742.38;5026980;28;20034;-85
2023/09/30 06:30:21;;;;;;;20.15;7.65;;;;;;;17.09;51.58;95697.53;5001367;28;20037;-85
2023/09/30 06:32:48;;;;;;;26.75;8.75;;;;;;;17.27;51.52;95726.06;4989941;28;20508;-86
2023/09/30 06:35:14;;;;;;;26.38;8.20;;;;;;;17.15;51.23;95687.50;4995851;28;20066;-85
2023/09/30 06:37:40;;;;;;;23.15;8.18;;;;;;;17.61;50.76;95740.88;4997309;28;20022;-85
2023/09/30 06:40:08;;;;;;;25.58;7.85;;;;;;;17.19;49.94;95669.72;4986026;28;20030;-85
2023/09/30 06:42:35;;;;;;;25.25;8.70;;;;;;;16.87;49.65;95603.72;4996947;28;20755;-85
2023/09/30 06:45:01;;;;;;;14.73;7.32;;;;;;;17.30;49.41;95665.72;5005150;28;20038;-87
2023/09/30 06:47:27;;;;;;;15.30;6.45;;;;;;;17.63;49.50;95726.06;4984665;28;20035;-88
2023/09/30 06:49:53;;;;;;;16.08;5.95;;;;;;;17.42;48.88;95667.84;4983803;28;20104;-87
2023/09/30 06:52:19;;;;;;;20.50;6.40;;;;;;;17.07;48.58;95597.91;4992410;28;20038;-88
2023/09/30 06:54:45;;;;;;;17.10;7.50;;;;;;;17.84;49.22;95725.59;4993164;28;20046;-88
2023/09/30 06:57:10;;;;;;;16.60;7.50;;;;;;;17.64;48.95;95692.00;4993940;28;20018;-87
2023/09/30 06:59:37;;;;;;;17.98;7.13;;;;;;;17.58;48.90;95682.47;4992703;28;20541;-86
2023/09/30 07:02:03;;;;;;;21.02;7.63;;;;;;;18.02;48.85;95762.16;4984755;28;20093;-87
2023/09/30 07:04:30;;;;;;;23.80;7.05;;;;;;;17.53;49.02;95671.88;4984687;28;20038;-86
2023/09/30 07:06:55;;;;;;;20.65;6.25;;;;;;;17.96;48.62;95740.03;4984001;28;20101;-87
2023/09/30 07:09:21;;;;;;;12.70;6.43;;;;;;;17.47;48.67;95663.13;4983562;28;20026;-87
2023/09/30 07:11:46;;;;;;;14.77;6.50;;;;;;;17.93;48.60;95740.66;4984718;28;20417;-87
2023/09/30 07:14:12;;;;;;;16.50;7.07;;;;;;;16.54;47.85;95515.53;4978719;28;20401;-87
2023/09/30 07:16:38;;;;;;;20.30;7.63;;;;;;;17.97;47.75;95735.47;4981855;28;20563;-87
2023/09/30 07:19:03;;;;;;;17.25;7.70;;;;;;;17.61;47.91;95680.00;4984572;28;20057;-86
2023/09/30 07:21:29;;;;;;;19.73;6.38;;;;;;;17.99;47.54;95734.06;4982136;28;20160;-86
2023/09/30 07:23:54;;;;;;;19.48;6.80;;;;;;;18.03;47.62;95745.78;4996409;28;20034;-87
2023/09/30 07:26:25;;;;;;;21.40;6.75;;;;;;;17.69;47.47;95673.91;5005526;28;20046;-85
2023/09/30 07:28:50;;;;;;;21.23;6.90;;;;;;;18.22;47.25;95767.06;4983777;28;20574;-87
2023/09/30 07:31:15;;;;;;;25.17;7.38;;;;;;;18.10;47.42;95721.97;4997814;28;20058;-86
2023/09/30 07:33:41;;;;;;;24.40;7.45;;;;;;;18.23;47.00;95736.44;4996652;28;20030;-87
2023/09/30 07:36:07;;;;;;;16.38;7.22;;;;;;;18.37;46.67;95745.19;4985257;28;20087;-85
2023/09/30 07:38:32;;;;;;;24.80;6.60;;;;;;;18.37;46.40;95739.00;4991190;28;20026;-84
2023/09/30 07:41:00;;;;;;;14.77;6.05;;;;;;;18.36;45.97;95721.31;4988387;28;20054;-85
2023/09/30 07:43:28;;;;;;;18.45;6.70;;;;;;;18.49;46.10;95733.84;4991015;28;20026;-85
2023/09/30 07:45:53;;;;;;;21.10;7.15;;;;;;;18.63;46.12;95749.88;4990379;28;20034;-85
2023/09/30 07:48:19;;;;;;;18.73;7.40;;;;;;;18.54;46.37;95727.56;4983157;28;20027;-84
2023/09/30 07:50:45;;;;;;;20.67;7.15;;;;;;;18.68;45.86;95739.03;4969797;28;20059;-84
2023/09/30 07:53:12;;;;;;;21.33;6.25;;;;;;;18.57;45.10;95700.88;4970771;28;20046;-84
2023/09/30 07:55:37;;;;;;;14.32;6.00;;;;;;;18.49;44.57;95672.88;4970108;28;20054;-87
2023/09/30 07:58:03;;;;;;;18.10;6.30;;;;;;;18.93;44.67;95743.66;4977599;28;20085;-87
2023/09/30 08:00:29;;;;;;;16.52;6.32;;;;;;;19.02;45.03;95735.63;4972035;28;20478;-87
2023/09/30 08:02:54;;;;;;;14.02;6.22;;;;;;;18.65;44.36;95657.16;4957692;28;20043;-87
2023/09/30 08:05:20;;;;;;;18.33;6.15;;;;;;;18.57;44.00;95644.47;4972015;28;20038;-87
2023/09/30 08:07:46;;;;;;;15.95;6.45;;;;;;;18.57;43.95;95619.50;4973831;28;20032;-86
2023/09/30 08:10:16;;;;;;;22.85;5.78;;;;;;;18.62;43.94;95630.91;4963700;28;20089;-87
2023/09/30 08:12:44;;;;;;;11.43;5.63;;;;;;;19.14;43.20;95696.28;4977167;28;20366;-87
2023/09/30 08:15:13;;;;;;;18.08;5.80;;;;;;;19.28;43.33;95714.97;4979737;28;20197;-87
2023/09/30 08:17:40;;;;;;;21.65;6.20;;;;;;;19.56;43.13;95737.78;4970487;28;20389;-87
2023/09/30 08:20:06;;;;;;;20.40;5.85;;;;;;;19.29;42.68;95670.84;4965646;28;20039;-87
2023/09/30 08:22:31;;;;;;;18.10;6.53;;;;;;;19.55;42.97;95698.53;4970513;28;20023;-86
2023/09/30 08:24:57;;;;;;;25.17;6.20;;;;;;;19.57;42.71;95698.22;4964978;28;20112;-87
2023/09/30 08:27:24;;;;;;;10.18;4.93;;;;;;;19.81;42.32;95711.97;4977962;28;20383;-87
2023/09/30 08:29:50;;;;;;;20.73;5.88;;;;;;;19.52;41.82;95676.88;4979009;28;20027;-87
2023/09/30 08:32:15;;;;;;;21.23;5.18;;;;;;;19.81;41.83;95721.94;4967912;28;20154;-87
2023/09/30 08:34:41;;;;;;;27.35;5.78;;;;;;;19.64;41.76;95693.16;4965531;28;20055;-87
2023/09/30 08:37:07;;;;;;;17.90;6.20;;;;;;;19.82;41.47;95694.72;4991840;28;20030;-87
2023/09/30 08:39:32;;;;;;;18.00;6.68;;;;;;;19.87;41.51;95689.16;4990527;28;20014;-88
2023/09/30 08:42:01;;;;;;;12.70;6.03;;;;;;;20.18;41.44;95748.16;4984667;28;20034;-87
2023/09/30 08:44:29;;;;;;;18.20;6.85;;;;;;;19.40;41.35;95614.81;4996355;28;20022;-88
2023/09/30 08:46:56;;;;;;;12.68;5.80;;;;;;;19.98;40.91;95662.69;4996184;28;20129;-87
2023/09/30 08:49:26;;;;;;;17.35;6.85;;;;;;;20.06;39.59;95661.88;4989886;28;20081;-87
2023/09/30 08:51:51;;;;;;;16.25;7.03;;;;;;;20.52;39.41;95725.75;4977224;28;20097;-88
2023/09/30 08:54:17;;;;;;;25.10;6.80;;;;;;;19.89;37.86;95627.72;4982503;28;20026;-87
2023/09/30 08:56:47;;;;;;;22.52;6.88;;;;;;;20.20;39.27;95661.69;4997677;28;20036;-88
2023/09/30 08:59:14;;;;;;;19.40;6.20;;;;;;;19.96;39.10;95617.25;4996419;28;20428;-87
2023/09/30 09:01:40;;;;;;;17.45;7.88;;;;;;;20.24;38.37;95644.53;4990154;28;20035;-88
2023/09/30 09:04:06;;;;;;;20.10;7.50;;;;;;;20.83;36.71;95716.59;4981276;28;20042;-88
2023/09/30 09:06:32;;;;;;;17.63;6.70;;;;;;;20.90;36.70;95731.16;4994506;28;20034;-88
2023/09/30 09:09:19;;;;;;;16.90;6.97;;;;;;;20.62;36.38;95676.09;4991016;28;20054;-88
2023/09/30 09:11:46;;;;;;;22.40;7.68;;;;;;;20.46;36.47;95640.03;4982186;28;20050;-87
2023/09/30 09:14:11;;;;;;;17.33;7.57;;;;;;;20.61;36.67;95655.66;4993962;28;20125;-88
2023/09/30 09:16:37;;;;;;;18.10;8.10;;;;;;;20.83;36.94;95671.53;4994367;28;20057;-88
2023/09/30 09:19:21;;;;;;;18.58;7.72;;;;;;;21.20;36.97;95710.38;4993885;28;20077;-87
2023/09/30 09:22:13;;;;;;;20.08;9.18;;;;;;;21.21;36.77;95716.56;4994275;28;20042;-88
2023/09/30 09:24:39;;;;;;;27.70;7.90;;;;;;;21.16;36.65;95683.25;4992437;28;20116;-88
2023/09/30 09:27:09;;;;;;;23.85;8.00;;;;;;;21.35;36.45;95715.19;4982102;28;20043;-88
2023/09/30 09:29:36;;;;;;;19.13;7.15;;;;;;;21.17;36.13;95676.75;4974449;28;20049;-87
2023/09/30 09:32:17;;;;;;;19.98;6.45;;;;;;;21.43;36.62;95694.66;4973676;28;20039;-87
2023/09/30 09:34:44;;;;;;;17.65;8.45;;;;;;;21.21;36.39;95643.72;4988597;28;20140;-88
2023/09/30 09:37:15;;;;;;;21.20;6.60;;;;;;;21.39;36.65;95678.31;4980126;28;20043;-88
2023/09/30 09:39:52;;;;;;;20.90;6.60;;;;;;;21.61;35.96;95693.38;4988644;28;20018;-87
2023/09/30 09:42:29;;;;;;;16.50;6.28;;;;;;;21.77;36.11;95701.66;4993380;28;20027;-87
2023/09/30 09:45:05;;;;;;;22.05;6.93;;;;;;;21.24;34.72;95608.78;4993512;28;20096;-88
2023/09/30 09:47:34;;;;;;;17.08;6.97;;;;;;;21.71;34.72;95686.78;4973788;28;20046;-87
2023/09/30 09:50:02;;;;;;;15.55;6.47;;;;;;;22.01;34.78;95698.28;4990686;28;20070;-88
2023/09/30 09:52:28;;;;;;;12.23;7.05;;;;;;;22.21;35.17;95675.81;4975269;28;20042;-87
2023/09/30 09:54:55;;;;;;;19.23;6.47;;;;;;;22.12;34.22;95591.41;4976456;28;20061;-87
2023/09/30 09:57:20;;;;;;;21.80;5.40;;;;;;;23.29;32.45;95682.34;4973460;28;20111;-88
2023/09/30 09:59:47;;;;;;;15.68;5.15;;;;;;;23.85;30.90;95634.47;4994135;28;20050;-88
2023/09/30 10:02:17;;;;;;;32.78;4.82;;;;;;;24.84;29.69;95652.41;4993099;28;20480;-88
2023/09/30 10:04:46;;;;;;;16.90;4.70;;;;;;;25.86;28.42;95682.94;4994456;28;20412;-88
2023/09/30 10:07:40;;;;;;;21.83;5.38;;;;;;;26.95;27.25;95688.00;4975450;28;20035;-89
2023/09/30 10:10:13;;;;;;;18.25;4.80;;;;;;;27.36;26.28;95591.72;4977634;28;20504;-88
2023/09/30 10:12:39;;;;;;;14.10;5.25;;;;;;;28.60;25.39;95657.69;4992963;28;20026;-88
2023/09/30 10:15:26;;;;;;;14.00;4.63;;;;;;;28.99;25.39;95664.25;4993178;28;20116;-88
2023/09/30 10:17:59;;;;;;;12.63;4.82;;;;;;;28.77;23.78;95646.16;4995115;28;20040;-88
2023/09/30 10:20:28;;;;;;;18.45;4.32;;;;;;;29.18;23.55;95635.91;4988330;28;20031;-88
2023/09/30 10:23:19;;;;;;;15.82;5.13;;;;;;;29.58;23.02;95658.75;4974038;28;20113;-88
2023/09/30 10:25:49;;;;;;;20.58;4.82;;;;;;;29.99;22.16;95656.56;4985265;28;20065;-88
2023/09/30 10:28:49;;;;;;;10.95;4.13;;;;;;;30.47;21.77;95660.59;4993129;28;20044;-88
2023/09/30 10:31:18;;;;;;;8.07;4.18;;;;;;;30.75;21.04;95664.53;4981906;28;20031;-88
2023/09/30 10:33:59;;;;;;;18.23;3.50;;;;;;;31.17;21.58;95659.06;4990055;28;20433;-87
2023/09/30 10:36:34;;;;;;;12.68;3.25;;;;;;;31.45;20.60;95649.97;4993132;28;20035;-88
2023/09/30 10:39:01;;;;;;;14.52;3.20;;;;;;;31.58;20.23;95620.97;4995620;28;20038;-87
2023/09/30 10:41:39;;;;;;;9.68;3.60;;;;;;;31.71;20.40;95663.22;4993615;28;20062;-88
2023/09/30 10:44:22;;;;;;;13.48;4.22;;;;;;;31.81;21.21;95654.16;4973309;28;20035;-87
2023/09/30 10:46:55;;;;;;;9.98;3.70;;;;;;;31.29;20.49;95586.59;4973387;28;20042;-89
2023/09/30 10:49:23;;;;;;;23.65;4.93;;;;;;;32.02;19.94;95647.03;4976809;28;20031;-88
2023/09/30 10:51:57;;;;;;;11.13;3.40;;;;;;;31.88;19.76;95600.47;4981205;28;20054;-88
2023/09/30 10:54:27;;;;;;;9.27;3.50;;;;;;;32.13;19.52;95644.97;4992591;28;20045;-88
2023/09/30 10:56:53;;;;;;;12.98;3.85;;;;;;;31.85;19.58;95623.22;4993404;28;20476;-88
2023/09/30 10:59:19;;;;;;;12.13;5.97;;;;;;;31.91;19.94;95627.09;4996600;28;20137;-88
2023/09/30 11:01:46;;;;;;;8.07;4.10;;;;;;;32.04;19.51;95636.44;4994881;28;20070;-88
2023/09/30 11:04:11;;;;;;;11.48;4.53;;;;;;;32.06;19.12;95640.31;4978854;28;20031;-89
2023/09/30 11:06:40;;;;;;;8.68;3.20;;;;;;;31.48;20.00;95626.47;4982867;28;20042;-88
2023/09/30 11:09:12;;;;;;;9.02;4.00;;;;;;;30.98;19.38;95563.56;4994156;28;20054;-89
2023/09/30 11:11:43;;;;;;;15.13;4.55;;;;;;;31.52;19.44;95629.97;4978240;28;20039;-88
2023/09/30 11:14:24;;;;;;;15.05;4.45;;;;;;;31.54;19.47;95617.44;4978558;28;20429;-88
2023/09/30 11:16:51;;;;;;;10.98;4.25;;;;;;;31.74;19.29;95623.25;4984254;28;20441;-88
2023/09/30 11:19:17;;;;;;;9.43;3.80;;;;;;;31.16;20.29;95534.22;5014878;28;20422;-88
2023/09/30 11:21:46;;;;;;;19.10;4.30;;;;;;;31.78;19.81;95626.75;4996472;28;20076;-88
2023/09/30 11:24:12;;;;;;;12.85;4.25;;;;;;;30.84;19.92;95525.28;4991049;28;20818;-88
2023/09/30 11:26:37;;;;;;;16.17;4.95;;;;;;;31.41;19.89;95608.88;4982886;28;20157;-89